createdAt,value
2019-03-03T00:00:06.517Z,9.42
2019-03-03T00:00:56.133Z,9.41
2019-03-03T00:01:34.214Z,9.37
2019-03-03T00:02:10.170Z,9.32
2019-03-03T00:02:45.583Z,9.40
2019-03-03T00:03:21.516Z,9.37
2019-03-03T00:03:57.154Z,9.31
2019-03-03T00:04:32.849Z,9.30
2019-03-03T00:05:08.652Z,9.30
2019-03-03T00:05:44.057Z,9.33
2019-03-03T00:06:20.012Z,9.38
2019-03-03T00:06:55.666Z,9.38
2019-03-03T00:07:31.657Z,9.26
2019-03-03T00:08:07.130Z,9.26
2019-03-03T00:08:42.522Z,9.33
2019-03-03T00:09:17.913Z,9.31
2019-03-03T00:09:54.152Z,9.33
2019-03-03T00:10:30.101Z,9.33
2019-03-03T00:11:05.760Z,9.23
2019-03-03T00:11:41.425Z,9.28
2019-03-03T00:12:16.833Z,9.22
2019-03-03T00:12:52.263Z,9.25
2019-03-03T00:13:27.932Z,9.23
2019-03-03T00:14:03.498Z,9.20
2019-03-03T00:14:38.847Z,9.27
2019-03-03T00:15:14.409Z,9.27
2019-03-03T00:15:49.829Z,9.31
2019-03-03T00:16:25.308Z,9.33
2019-03-03T00:17:00.706Z,9.33
2019-03-03T00:17:36.091Z,9.31
2019-03-03T00:18:11.748Z,9.31
2019-03-03T00:18:47.162Z,9.31
2019-03-03T00:19:22.559Z,9.34
2019-03-03T00:19:57.938Z,9.34
2019-03-03T00:20:33.599Z,9.35
2019-03-03T00:21:09.225Z,9.35
2019-03-03T00:21:44.914Z,9.41
2019-03-03T00:22:20.578Z,9.35
2019-03-03T00:22:56.007Z,9.35
2019-03-03T00:23:31.387Z,9.45
2019-03-03T00:24:06.885Z,9.35
2019-03-03T00:24:42.529Z,9.34
2019-03-03T00:25:18.275Z,9.35
2019-03-03T00:25:53.778Z,9.35
2019-03-03T00:26:29.158Z,9.33
2019-03-03T00:27:04.546Z,9.30
2019-03-03T00:27:40.195Z,9.25
2019-03-03T00:28:15.642Z,9.25
2019-03-03T00:28:51.044Z,9.22
2019-03-03T00:29:27.016Z,9.22
2019-03-03T00:30:02.688Z,9.23
2019-03-03T00:30:38.077Z,9.25
2019-03-03T00:31:16.147Z,9.35
2019-03-03T00:31:51.564Z,9.35
2019-03-03T00:32:27.208Z,9.35
2019-03-03T00:33:02.926Z,9.28
2019-03-03T00:33:38.315Z,9.28
2019-03-03T00:34:13.991Z,9.29
2019-03-03T00:34:49.385Z,9.24
2019-03-03T00:35:24.790Z,9.21
2019-03-03T00:36:00.165Z,9.25
2019-03-03T00:36:53.456Z,9.25
2019-03-03T00:37:41.404Z,9.36
2019-03-03T00:38:45.068Z,9.31
2019-03-03T00:39:32.948Z,9.36
2019-03-03T00:40:30.156Z,9.36
2019-03-03T00:41:23.223Z,9.33
2019-03-03T00:42:17.884Z,9.37
2019-03-03T00:43:06.091Z,9.37
2019-03-03T00:43:48.031Z,9.36
2019-03-03T00:44:42.571Z,9.36
2019-03-03T00:45:25.733Z,9.36
2019-03-03T00:46:23.622Z,9.36
2019-03-03T00:47:20.113Z,9.33
2019-03-03T00:48:20.680Z,9.33
2019-03-03T00:49:17.560Z,9.38
2019-03-03T00:50:04.534Z,9.38
2019-03-03T00:51:07.805Z,9.27
2019-03-03T00:52:00.830Z,9.38
2019-03-03T00:52:45.986Z,9.38
2019-03-03T00:53:35.143Z,9.40
2019-03-03T00:54:38.711Z,9.35
2019-03-03T00:55:41.662Z,9.35
2019-03-03T00:56:50.875Z,9.45
2019-03-03T00:57:38.945Z,9.37
2019-03-03T00:58:34.891Z,9.49
2019-03-03T00:59:31.994Z,9.49
2019-03-03T01:00:21.442Z,9.39
2019-03-03T01:01:08.137Z,9.31
2019-03-03T01:01:48.615Z,9.31
2019-03-03T01:02:46.897Z,9.32
2019-03-03T01:03:47.132Z,9.32
2019-03-03T01:04:56.511Z,9.38
2019-03-03T01:06:03.014Z,9.30
2019-03-03T01:06:55.904Z,9.30
2019-03-03T01:07:59.196Z,9.36
2019-03-03T01:08:59.458Z,9.36
2019-03-03T01:09:57.835Z,9.35
2019-03-03T01:11:01.379Z,9.35
2019-03-03T01:11:55.991Z,9.38
2019-03-03T01:12:50.605Z,9.41
2019-03-03T01:13:44.980Z,9.42
2019-03-03T01:14:27.334Z,9.42
2019-03-03T01:15:20.165Z,9.41
2019-03-03T01:16:20.595Z,9.30
2019-03-03T01:17:13.645Z,9.30
2019-03-03T01:18:14.567Z,9.33
2019-03-03T01:19:01.078Z,9.37
2019-03-03T01:19:52.285Z,9.32
2019-03-03T01:20:46.663Z,9.34
2019-03-03T01:21:53.547Z,9.34
2019-03-03T01:22:32.698Z,9.31
2019-03-03T01:23:25.683Z,9.34
2019-03-03T01:24:20.033Z,9.31
2019-03-03T01:24:58.298Z,9.31
2019-03-03T01:25:33.685Z,9.34
2019-03-03T01:26:09.324Z,9.41
2019-03-03T01:26:44.807Z,9.41
2019-03-03T01:27:20.504Z,9.36
2019-03-03T01:27:56.401Z,9.35
2019-03-03T01:28:31.868Z,9.37
2019-03-03T01:29:07.523Z,9.31
2019-03-03T01:29:43.179Z,9.31
2019-03-03T01:30:18.939Z,9.37
2019-03-03T01:30:54.574Z,9.27
2019-03-03T01:31:30.225Z,9.21
2019-03-03T01:32:05.898Z,9.24
2019-03-03T01:32:41.531Z,9.24
2019-03-03T01:33:17.104Z,9.17
2019-03-03T01:33:52.801Z,9.19
2019-03-03T01:34:29.157Z,9.17
2019-03-03T01:35:04.581Z,9.19
2019-03-03T01:35:40.215Z,9.20
2019-03-03T01:36:15.739Z,9.20
2019-03-03T01:36:51.425Z,9.19
2019-03-03T01:37:26.837Z,9.22
2019-03-03T01:38:02.536Z,9.21
2019-03-03T01:38:38.656Z,9.24
2019-03-03T01:39:14.347Z,9.24
2019-03-03T01:39:50.425Z,9.17
2019-03-03T01:40:25.850Z,9.17
2019-03-03T01:41:01.482Z,9.19
2019-03-03T01:41:36.873Z,9.24
2019-03-03T01:42:12.355Z,9.16
2019-03-03T01:42:48.237Z,9.23
2019-03-03T01:43:23.873Z,9.23
2019-03-03T01:43:59.339Z,9.24
2019-03-03T01:44:35.001Z,9.35
2019-03-03T01:45:11.545Z,9.35
2019-03-03T01:45:47.085Z,9.25
2019-03-03T01:46:22.987Z,9.29
2019-03-03T01:46:58.362Z,9.29
2019-03-03T01:47:33.746Z,9.29
2019-03-03T01:48:09.450Z,9.28
2019-03-03T01:48:45.498Z,9.23
2019-03-03T01:49:21.199Z,9.15
2019-03-03T01:49:57.034Z,9.15
2019-03-03T01:50:32.514Z,9.17
2019-03-03T01:51:08.365Z,9.17
2019-03-03T01:51:43.762Z,9.15
2019-03-03T01:52:19.253Z,9.15
2019-03-03T01:52:54.664Z,9.23
2019-03-03T01:53:30.043Z,9.11
2019-03-03T01:54:05.775Z,9.10
2019-03-03T01:54:41.154Z,9.18
2019-03-03T01:55:16.644Z,9.10
2019-03-03T01:55:52.071Z,9.14
2019-03-03T01:56:28.008Z,9.14
2019-03-03T01:57:03.642Z,9.25
2019-03-03T01:57:39.023Z,9.25
2019-03-03T01:58:15.193Z,9.23
2019-03-03T01:58:51.441Z,9.27
2019-03-03T01:59:27.131Z,9.20
2019-03-03T02:00:02.777Z,9.20
2019-03-03T02:00:38.445Z,9.09
2019-03-03T02:01:13.958Z,9.23
2019-03-03T02:01:49.450Z,9.23
2019-03-03T02:02:24.823Z,9.23
2019-03-03T02:03:00.290Z,9.18
2019-03-03T02:03:36.490Z,9.22
2019-03-03T02:04:12.154Z,9.20
2019-03-03T02:04:47.647Z,9.20
2019-03-03T02:05:23.472Z,9.22
2019-03-03T02:05:58.860Z,9.13
2019-03-03T02:06:34.494Z,9.13
2019-03-03T02:07:09.893Z,9.13
2019-03-03T02:07:45.383Z,9.18
2019-03-03T02:08:21.075Z,9.23
2019-03-03T02:08:56.478Z,9.23
2019-03-03T02:09:31.988Z,9.28
2019-03-03T02:10:07.961Z,9.28
2019-03-03T02:10:44.480Z,9.19
2019-03-03T02:11:19.921Z,9.21
2019-03-03T02:11:55.333Z,9.12
2019-03-03T02:12:30.874Z,9.12
2019-03-03T02:13:06.595Z,9.20
2019-03-03T02:13:42.267Z,9.24
2019-03-03T02:14:17.794Z,9.24
2019-03-03T02:14:53.228Z,9.26
2019-03-03T02:15:29.312Z,9.26
2019-03-03T02:16:05.762Z,9.20
2019-03-03T02:16:41.452Z,9.12
2019-03-03T02:17:16.919Z,9.12
2019-03-03T02:17:52.315Z,9.13
2019-03-03T02:18:27.952Z,9.18
2019-03-03T02:19:03.869Z,9.18
2019-03-03T02:19:39.504Z,9.12
2019-03-03T02:20:14.894Z,9.18
2019-03-03T02:20:50.340Z,9.15
2019-03-03T02:21:26.298Z,9.29
2019-03-03T02:22:01.658Z,9.23
2019-03-03T02:22:37.058Z,9.29
2019-03-03T02:23:12.782Z,9.29
2019-03-03T02:23:48.460Z,9.31
2019-03-03T02:24:23.942Z,9.33
2019-03-03T02:24:59.568Z,9.39
2019-03-03T02:25:34.957Z,9.42
2019-03-03T02:26:10.431Z,9.35
2019-03-03T02:26:46.129Z,9.30
2019-03-03T02:27:21.779Z,9.26
2019-03-03T02:27:57.250Z,9.29
2019-03-03T02:28:32.868Z,9.31
2019-03-03T02:29:08.574Z,9.33
2019-03-03T02:29:44.724Z,9.39
2019-03-03T02:30:21.188Z,9.39
2019-03-03T02:30:56.567Z,9.41
2019-03-03T02:31:32.025Z,9.42
2019-03-03T02:32:07.496Z,9.47
2019-03-03T02:32:43.140Z,9.47
2019-03-03T02:33:19.169Z,9.31
2019-03-03T02:33:54.548Z,9.35
2019-03-03T02:34:30.307Z,9.35
2019-03-03T02:35:05.927Z,9.32
2019-03-03T02:35:41.303Z,9.27
2019-03-03T02:36:16.733Z,9.24
2019-03-03T02:36:52.687Z,9.27
2019-03-03T02:37:28.615Z,9.27
2019-03-03T02:38:03.998Z,9.31
2019-03-03T02:38:39.379Z,9.28
2019-03-03T02:39:18.796Z,9.28
2019-03-03T02:39:54.236Z,9.30
2019-03-03T02:40:30.177Z,9.28
2019-03-03T02:41:05.860Z,9.28
2019-03-03T02:41:41.296Z,9.28
2019-03-03T02:42:16.959Z,9.32
2019-03-03T02:42:52.368Z,9.32
2019-03-03T02:43:27.747Z,9.29
2019-03-03T02:44:03.512Z,9.25
2019-03-03T02:44:38.882Z,9.25
2019-03-03T02:45:14.930Z,9.32
2019-03-03T02:45:50.361Z,9.35
2019-03-03T02:46:26.067Z,9.35
2019-03-03T02:47:01.466Z,9.36
2019-03-03T02:47:37.026Z,9.36
2019-03-03T02:48:12.663Z,9.32
2019-03-03T02:48:48.088Z,9.39
2019-03-03T02:49:23.886Z,9.45
2019-03-03T02:49:59.614Z,9.45
2019-03-03T02:50:35.279Z,9.43
2019-03-03T02:51:10.660Z,9.41
2019-03-03T02:51:46.366Z,9.41
2019-03-03T02:52:22.064Z,9.38
2019-03-03T02:52:57.753Z,9.45
2019-03-03T02:53:33.443Z,9.45
2019-03-03T02:54:08.858Z,9.45
2019-03-03T02:54:44.507Z,9.45
2019-03-03T02:55:19.920Z,9.50
2019-03-03T02:55:55.607Z,9.49
2019-03-03T02:56:30.983Z,9.50
2019-03-03T02:57:06.373Z,9.50
2019-03-03T02:57:42.004Z,9.48
2019-03-03T02:58:17.415Z,9.48
2019-03-03T02:58:52.848Z,9.41
2019-03-03T02:59:28.261Z,9.53
2019-03-03T03:00:04.578Z,9.53
2019-03-03T03:00:47.746Z,9.53
2019-03-03T03:01:26.786Z,9.49
2019-03-03T03:02:04.706Z,9.49
2019-03-03T03:02:45.242Z,9.43
2019-03-03T03:03:21.407Z,9.43
2019-03-03T03:03:56.792Z,9.40
2019-03-03T03:04:32.205Z,9.40
2019-03-03T03:05:07.791Z,9.42
2019-03-03T03:06:02.155Z,9.41
2019-03-03T03:06:51.290Z,9.39
2019-03-03T03:08:00.551Z,9.42
2019-03-03T03:08:57.676Z,9.33
2019-03-03T03:09:53.518Z,9.33
2019-03-03T03:10:40.919Z,9.32
2019-03-03T03:11:30.012Z,9.26
2019-03-03T03:12:22.762Z,9.26
2019-03-03T03:13:16.050Z,9.31
2019-03-03T03:14:10.705Z,9.33
2019-03-03T03:15:05.061Z,9.29
2019-03-03T03:16:00.876Z,9.29
2019-03-03T03:17:01.353Z,9.31
2019-03-03T03:18:04.932Z,9.31
2019-03-03T03:18:59.264Z,9.38
2019-03-03T03:19:42.547Z,9.26
2019-03-03T03:20:48.919Z,9.26
2019-03-03T03:21:48.876Z,9.24
2019-03-03T03:22:33.896Z,9.24
2019-03-03T03:23:37.436Z,9.26
2019-03-03T03:24:37.610Z,9.17
2019-03-03T03:25:30.506Z,9.17
2019-03-03T03:26:27.619Z,9.12
2019-03-03T03:27:20.741Z,9.29
2019-03-03T03:28:21.368Z,9.29
2019-03-03T03:29:24.548Z,9.29
2019-03-03T03:30:19.844Z,9.22
2019-03-03T03:31:09.511Z,9.24
2019-03-03T03:32:03.853Z,9.24
2019-03-03T03:32:46.800Z,9.21
2019-03-03T03:33:40.679Z,9.21
2019-03-03T03:34:20.805Z,9.18
2019-03-03T03:35:24.179Z,9.13
2019-03-03T03:36:21.902Z,9.23
2019-03-03T03:37:25.440Z,9.18
2019-03-03T03:38:22.890Z,9.10
2019-03-03T03:39:26.132Z,9.16
2019-03-03T03:40:14.398Z,9.16
2019-03-03T03:40:55.314Z,9.07
2019-03-03T03:41:55.477Z,9.06
2019-03-03T03:42:50.197Z,9.10
2019-03-03T03:43:59.604Z,9.00
2019-03-03T03:45:01.487Z,9.00
2019-03-03T03:45:53.363Z,9.04
2019-03-03T03:46:44.414Z,9.04
2019-03-03T03:47:41.999Z,9.04
2019-03-03T03:48:45.097Z,9.04
2019-03-03T03:49:27.616Z,9.18
2019-03-03T03:50:24.833Z,9.13
2019-03-03T03:51:09.065Z,9.13
2019-03-03T03:52:06.560Z,9.11
2019-03-03T03:52:58.274Z,9.17
2019-03-03T03:53:50.532Z,9.17
2019-03-03T03:54:39.247Z,9.16
2019-03-03T03:55:48.855Z,9.17
2019-03-03T03:56:45.805Z,9.10
2019-03-03T03:57:52.376Z,9.10
2019-03-03T03:58:45.168Z,9.06
2019-03-03T03:59:26.001Z,9.01
2019-03-03T04:00:18.855Z,9.12
2019-03-03T04:01:19.349Z,9.11
2019-03-03T04:02:05.434Z,9.11
2019-03-03T04:02:59.875Z,9.00
2019-03-03T04:03:52.842Z,9.00
2019-03-03T04:04:37.864Z,9.05
2019-03-03T04:05:19.728Z,9.05
2019-03-03T04:06:18.909Z,8.98
2019-03-03T04:07:03.017Z,8.98
2019-03-03T04:08:00.466Z,9.01
2019-03-03T04:08:50.160Z,9.09
2019-03-03T04:09:47.562Z,8.97
2019-03-03T04:10:51.055Z,9.01
2019-03-03T04:11:51.209Z,9.01
2019-03-03T04:12:46.033Z,9.14
2019-03-03T04:13:29.832Z,9.06
2019-03-03T04:14:17.179Z,9.07
2019-03-03T04:15:27.051Z,9.06
2019-03-03T04:16:19.780Z,9.05
2019-03-03T04:17:14.461Z,9.05
2019-03-03T04:18:07.265Z,9.08
2019-03-03T04:19:07.474Z,9.02
2019-03-03T04:19:55.955Z,9.02
2019-03-03T04:20:48.740Z,9.07
2019-03-03T04:21:39.998Z,9.06
2019-03-03T04:22:34.678Z,9.01
2019-03-03T04:23:17.250Z,9.01
2019-03-03T04:24:01.305Z,9.04
2019-03-03T04:24:54.587Z,9.04
2019-03-03T04:25:47.455Z,9.02
2019-03-03T04:26:29.563Z,9.00
2019-03-03T04:27:20.950Z,9.00
2019-03-03T04:28:24.745Z,9.06
2019-03-03T04:29:27.949Z,9.06
2019-03-03T04:30:17.947Z,9.06
2019-03-03T04:31:05.977Z,9.08
2019-03-03T04:32:05.116Z,9.00
2019-03-03T04:32:58.225Z,8.97
2019-03-03T04:33:45.100Z,9.04
2019-03-03T04:34:39.541Z,8.97
2019-03-03T04:35:33.899Z,8.97
2019-03-03T04:36:21.893Z,8.95
2019-03-03T04:37:22.284Z,9.05
2019-03-03T04:38:19.724Z,9.00
2019-03-03T04:39:09.539Z,9.00
2019-03-03T04:40:04.167Z,9.05
2019-03-03T04:41:03.207Z,8.99
2019-03-03T04:41:50.320Z,8.94
2019-03-03T04:42:41.353Z,9.03
2019-03-03T04:43:27.844Z,9.03
2019-03-03T04:44:10.610Z,9.00
2019-03-03T04:45:04.970Z,9.04
2019-03-03T04:45:44.926Z,9.10
2019-03-03T04:46:51.408Z,9.02
2019-03-03T04:47:33.917Z,9.00
2019-03-03T04:48:35.855Z,9.02
2019-03-03T04:49:25.621Z,9.08
2019-03-03T04:50:23.098Z,9.08
2019-03-03T04:51:27.005Z,9.06
2019-03-03T04:52:14.782Z,9.10
2019-03-03T04:53:01.191Z,9.06
2019-03-03T04:53:56.914Z,9.00
2019-03-03T04:54:51.562Z,8.99
2019-03-03T04:55:51.962Z,8.99
2019-03-03T04:56:32.964Z,9.01
2019-03-03T04:57:33.352Z,9.06
2019-03-03T04:58:27.831Z,9.06
2019-03-03T04:59:28.011Z,9.02
2019-03-03T05:00:25.363Z,9.00
2019-03-03T05:01:22.654Z,9.06
2019-03-03T05:02:08.430Z,9.06
2019-03-03T05:03:18.310Z,9.00
2019-03-03T05:04:02.846Z,9.10
2019-03-03T05:04:52.574Z,9.08
2019-03-03T05:05:47.036Z,9.03
2019-03-03T05:06:40.133Z,9.12
2019-03-03T05:07:33.157Z,9.15
2019-03-03T05:08:42.684Z,9.20
2019-03-03T05:09:29.503Z,9.19
2019-03-03T05:10:24.796Z,9.24
2019-03-03T05:11:18.084Z,9.11
2019-03-03T05:12:26.973Z,9.11
2019-03-03T05:13:21.453Z,9.18
2019-03-03T05:14:12.900Z,9.22
2019-03-03T05:14:48.547Z,9.12
2019-03-03T05:15:41.296Z,9.13
2019-03-03T05:16:28.189Z,9.17
2019-03-03T05:17:09.503Z,9.17
2019-03-03T05:17:49.969Z,9.17
2019-03-03T05:18:29.675Z,9.17
2019-03-03T05:19:11.827Z,9.17
2019-03-03T05:19:52.183Z,9.24
2019-03-03T05:20:39.456Z,9.24
2019-03-03T05:21:15.135Z,9.19
2019-03-03T05:21:50.554Z,9.16
2019-03-03T05:22:25.932Z,9.14
2019-03-03T05:23:01.937Z,9.14
2019-03-03T05:23:37.584Z,9.14
2019-03-03T05:24:12.964Z,9.14
2019-03-03T05:24:48.650Z,9.15
2019-03-03T05:25:24.325Z,9.13
2019-03-03T05:25:59.690Z,9.11
2019-03-03T05:26:35.333Z,9.11
2019-03-03T05:27:10.750Z,9.17
2019-03-03T05:27:46.402Z,9.16
2019-03-03T05:28:21.827Z,9.16
2019-03-03T05:28:57.239Z,9.25
2019-03-03T05:29:32.935Z,9.23
2019-03-03T05:30:08.484Z,9.21
2019-03-03T05:30:44.125Z,9.17
2019-03-03T05:31:20.083Z,9.17
2019-03-03T05:31:55.709Z,9.22
2019-03-03T05:32:31.096Z,9.22
2019-03-03T05:33:07.036Z,9.23
2019-03-03T05:33:42.713Z,9.23
2019-03-03T05:34:18.162Z,9.25
2019-03-03T05:34:53.536Z,9.26
2019-03-03T05:35:28.936Z,9.24
2019-03-03T05:36:04.330Z,9.24
2019-03-03T05:36:39.732Z,9.20
2019-03-03T05:37:15.162Z,9.20
2019-03-03T05:37:50.667Z,9.24
2019-03-03T05:38:26.096Z,9.26
2019-03-03T05:39:02.110Z,9.29
2019-03-03T05:39:37.721Z,9.22
2019-03-03T05:40:13.106Z,9.22
2019-03-03T05:40:48.803Z,9.21
2019-03-03T05:41:24.299Z,9.22
2019-03-03T05:41:59.705Z,9.22
2019-03-03T05:42:35.115Z,9.22
2019-03-03T05:43:10.501Z,9.24
2019-03-03T05:43:45.936Z,9.27
2019-03-03T05:44:21.360Z,9.34
2019-03-03T05:44:56.755Z,9.24
2019-03-03T05:45:32.420Z,9.24
2019-03-03T05:46:08.085Z,9.24
2019-03-03T05:46:44.194Z,9.28
2019-03-03T05:47:19.624Z,9.30
2019-03-03T05:47:55.301Z,9.30
2019-03-03T05:48:30.747Z,9.32
2019-03-03T05:49:06.125Z,9.31
2019-03-03T05:49:41.757Z,9.29
2019-03-03T05:50:17.464Z,9.29
2019-03-03T05:50:52.975Z,9.31
2019-03-03T05:51:28.612Z,9.31
2019-03-03T05:52:04.005Z,9.31
2019-03-03T05:52:39.704Z,9.30
2019-03-03T05:53:15.406Z,9.30
2019-03-03T05:53:51.187Z,9.26
2019-03-03T05:54:27.051Z,9.31
2019-03-03T05:55:02.783Z,9.34
2019-03-03T05:55:38.205Z,9.34
2019-03-03T05:56:16.300Z,9.40
2019-03-03T05:56:51.826Z,9.37
2019-03-03T05:57:27.233Z,9.31
2019-03-03T05:58:02.607Z,9.31
2019-03-03T05:58:38.281Z,9.29
2019-03-03T05:59:13.711Z,9.30
2019-03-03T05:59:49.151Z,9.36
2019-03-03T06:00:24.819Z,9.39
2019-03-03T06:01:00.209Z,9.39
2019-03-03T06:01:35.595Z,9.35
2019-03-03T06:02:11.557Z,9.39
2019-03-03T06:02:46.987Z,9.39
2019-03-03T06:03:22.465Z,9.39
2019-03-03T06:03:57.899Z,9.49
2019-03-03T06:04:33.308Z,9.43
2019-03-03T06:05:08.688Z,9.43
2019-03-03T06:05:44.094Z,9.43
2019-03-03T06:06:19.499Z,9.43
2019-03-03T06:06:54.955Z,9.51
2019-03-03T06:07:30.342Z,9.47
2019-03-03T06:08:05.715Z,9.45
2019-03-03T06:08:41.433Z,9.47
2019-03-03T06:09:17.085Z,9.47
2019-03-03T06:09:52.668Z,9.42
2019-03-03T06:10:28.065Z,9.38
2019-03-03T06:11:03.475Z,9.43
2019-03-03T06:11:39.122Z,9.43
2019-03-03T06:12:14.521Z,9.43
2019-03-03T06:12:49.949Z,9.38
2019-03-03T06:13:25.371Z,9.38
2019-03-03T06:14:00.864Z,9.47
2019-03-03T06:14:36.266Z,9.44
2019-03-03T06:15:12.872Z,9.46
2019-03-03T06:15:48.853Z,9.46
2019-03-03T06:16:24.511Z,9.51
2019-03-03T06:16:59.949Z,9.46
2019-03-03T06:17:35.583Z,9.46
2019-03-03T06:18:11.221Z,9.56
2019-03-03T06:18:46.669Z,9.49
2019-03-03T06:19:22.378Z,9.58
2019-03-03T06:19:57.769Z,9.61
2019-03-03T06:20:33.149Z,9.55
2019-03-03T06:21:08.772Z,9.55
2019-03-03T06:21:44.205Z,9.56
2019-03-03T06:22:20.223Z,9.56
2019-03-03T06:22:55.868Z,9.55
2019-03-03T06:23:31.247Z,9.49
2019-03-03T06:24:06.655Z,9.58
2019-03-03T06:24:42.031Z,9.58
2019-03-03T06:25:17.557Z,9.56
2019-03-03T06:25:53.223Z,9.49
2019-03-03T06:26:28.872Z,9.49
2019-03-03T06:27:04.532Z,9.53
2019-03-03T06:27:39.940Z,9.53
2019-03-03T06:28:15.409Z,9.62
2019-03-03T06:28:51.192Z,9.59
2019-03-03T06:29:26.885Z,9.62
2019-03-03T06:30:02.286Z,9.62
2019-03-03T06:30:37.767Z,9.61
2019-03-03T06:31:13.410Z,9.61
2019-03-03T06:31:49.196Z,9.57
2019-03-03T06:32:24.590Z,9.57
2019-03-03T06:33:00.550Z,9.65
2019-03-03T06:33:36.507Z,9.73
2019-03-03T06:34:11.922Z,9.71
2019-03-03T06:34:47.704Z,9.71
2019-03-03T06:35:23.175Z,9.66
2019-03-03T06:35:58.819Z,9.60
2019-03-03T06:36:34.802Z,9.58
2019-03-03T06:37:10.191Z,9.58
2019-03-03T06:37:45.595Z,9.64
2019-03-03T06:38:21.258Z,9.66
2019-03-03T06:38:56.995Z,9.65
2019-03-03T06:39:32.633Z,9.62
2019-03-03T06:40:08.586Z,9.68
2019-03-03T06:40:43.979Z,9.68
2019-03-03T06:41:19.407Z,9.69
2019-03-03T06:41:55.106Z,9.56
2019-03-03T06:42:30.761Z,9.50
2019-03-03T06:43:06.162Z,9.61
2019-03-03T06:43:41.548Z,9.61
2019-03-03T06:44:17.015Z,9.66
2019-03-03T06:44:52.535Z,9.65
2019-03-03T06:45:28.480Z,9.54
2019-03-03T06:46:03.887Z,9.66
2019-03-03T06:46:39.539Z,9.51
2019-03-03T06:47:15.259Z,9.56
2019-03-03T06:47:50.703Z,9.50
2019-03-03T06:48:26.120Z,9.46
2019-03-03T06:49:01.528Z,9.53
2019-03-03T06:49:36.923Z,9.64
2019-03-03T06:50:12.524Z,9.57
2019-03-03T06:50:48.204Z,9.61
2019-03-03T06:51:23.872Z,9.61
2019-03-03T06:51:59.258Z,9.65
2019-03-03T06:52:34.946Z,9.72
2019-03-03T06:53:10.594Z,9.68
2019-03-03T06:53:46.275Z,9.74
2019-03-03T06:54:21.979Z,9.64
2019-03-03T06:54:57.374Z,9.56
2019-03-03T06:55:33.039Z,9.56
2019-03-03T06:56:08.437Z,9.63
2019-03-03T06:56:44.112Z,9.59
2019-03-03T06:57:19.597Z,9.57
2019-03-03T06:57:55.137Z,9.60
2019-03-03T06:58:30.815Z,9.57
2019-03-03T06:59:06.782Z,9.70
2019-03-03T06:59:42.169Z,9.70
2019-03-03T07:00:17.936Z,9.59
2019-03-03T07:00:53.468Z,9.65
2019-03-03T07:01:29.395Z,9.57
2019-03-03T07:02:05.156Z,9.48
2019-03-03T07:02:41.092Z,9.59
2019-03-03T07:03:16.522Z,9.59
2019-03-03T07:03:51.988Z,9.56
2019-03-03T07:04:27.692Z,9.59
2019-03-03T07:05:03.090Z,9.63
2019-03-03T07:05:38.782Z,9.61
2019-03-03T07:06:14.177Z,9.58
2019-03-03T07:06:49.622Z,9.58
2019-03-03T07:07:25.114Z,9.68
2019-03-03T07:08:00.753Z,9.68
2019-03-03T07:08:36.131Z,9.68
2019-03-03T07:09:11.820Z,9.63
2019-03-03T07:09:47.851Z,9.63
2019-03-03T07:10:23.265Z,9.64
2019-03-03T07:10:58.649Z,9.65
2019-03-03T07:11:34.684Z,9.68
2019-03-03T07:12:10.087Z,9.68
2019-03-03T07:12:45.768Z,9.73
2019-03-03T07:13:21.455Z,9.82
2019-03-03T07:13:56.887Z,9.82
2019-03-03T07:14:32.546Z,9.81
2019-03-03T07:15:09.951Z,9.71
2019-03-03T07:15:45.454Z,9.73
2019-03-03T07:16:21.162Z,9.73
2019-03-03T07:16:56.941Z,9.80
2019-03-03T07:17:32.311Z,9.80
2019-03-03T07:18:07.944Z,9.78
2019-03-03T07:18:43.422Z,9.78
2019-03-03T07:19:18.897Z,9.77
2019-03-03T07:19:54.330Z,9.87
2019-03-03T07:20:29.981Z,9.88
2019-03-03T07:21:06.003Z,9.94
2019-03-03T07:21:41.412Z,9.94
2019-03-03T07:22:16.851Z,9.88
2019-03-03T07:22:52.279Z,9.77
2019-03-03T07:23:27.953Z,9.77
2019-03-03T07:24:03.627Z,9.78
2019-03-03T07:24:39.605Z,9.76
2019-03-03T07:25:15.291Z,9.75
2019-03-03T07:25:50.943Z,9.69
2019-03-03T07:26:26.949Z,9.76
2019-03-03T07:27:02.580Z,9.79
2019-03-03T07:27:38.078Z,9.83
2019-03-03T07:28:13.773Z,9.82
2019-03-03T07:28:49.448Z,9.85
2019-03-03T07:29:24.852Z,9.85
2019-03-03T07:30:00.340Z,9.86
2019-03-03T07:30:35.701Z,9.91
2019-03-03T07:31:11.348Z,9.95
2019-03-03T07:31:47.074Z,9.90
2019-03-03T07:32:23.037Z,9.97
2019-03-03T07:33:16.120Z,9.97
2019-03-03T07:33:54.861Z,9.92
2019-03-03T07:34:30.269Z,9.92
2019-03-03T07:35:05.987Z,9.91
2019-03-03T07:35:41.673Z,9.93
2019-03-03T07:36:17.371Z,9.91
2019-03-03T07:36:52.781Z,9.91
2019-03-03T07:37:28.484Z,10.00
2019-03-03T07:38:03.907Z,9.95
2019-03-03T07:38:39.317Z,9.86
2019-03-03T07:39:19.093Z,9.92
2019-03-03T07:39:54.522Z,9.89
2019-03-03T07:40:29.940Z,9.89
2019-03-03T07:41:05.346Z,9.85
2019-03-03T07:41:40.783Z,9.84
2019-03-03T07:42:17.371Z,9.88
2019-03-03T07:42:52.841Z,9.90
2019-03-03T07:43:28.252Z,9.92
2019-03-03T07:44:03.807Z,9.92
2019-03-03T07:44:39.548Z,9.95
2019-03-03T07:45:15.315Z,9.96
2019-03-03T07:45:51.101Z,9.86
2019-03-03T07:46:26.513Z,9.94
2019-03-03T07:47:02.475Z,9.97
2019-03-03T07:47:38.171Z,9.92
2019-03-03T07:48:13.856Z,9.94
2019-03-03T07:48:49.323Z,10.02
2019-03-03T07:49:24.735Z,9.97
2019-03-03T07:50:00.414Z,9.97
2019-03-03T07:50:36.145Z,10.00
2019-03-03T07:51:11.537Z,10.03
2019-03-03T07:51:47.260Z,9.97
2019-03-03T07:52:22.713Z,9.96
2019-03-03T07:52:58.154Z,9.95
2019-03-03T07:53:33.895Z,10.01
2019-03-03T07:54:09.366Z,10.03
2019-03-03T07:54:45.116Z,9.96
2019-03-03T07:55:20.566Z,10.02
2019-03-03T07:55:56.272Z,9.94
2019-03-03T07:56:31.941Z,9.94
2019-03-03T07:57:06.896Z,9.94
2019-03-03T07:57:42.301Z,9.97
2019-03-03T07:58:17.795Z,9.96
2019-03-03T07:58:53.275Z,9.89
2019-03-03T07:59:28.925Z,10.01
2019-03-03T08:00:04.885Z,10.04
2019-03-03T08:00:40.281Z,9.99
2019-03-03T08:01:15.996Z,9.96
2019-03-03T08:01:51.739Z,10.04
2019-03-03T08:02:27.434Z,10.05
2019-03-03T08:03:03.133Z,10.13
2019-03-03T08:03:38.848Z,10.09
2019-03-03T08:04:14.278Z,10.08
2019-03-03T08:04:50.126Z,10.01
2019-03-03T08:05:25.856Z,10.03
2019-03-03T08:06:01.522Z,10.03
2019-03-03T08:06:36.913Z,9.97
2019-03-03T08:07:12.582Z,9.97
2019-03-03T08:07:48.123Z,10.01
2019-03-03T08:08:23.543Z,9.93
2019-03-03T08:08:58.981Z,9.96
2019-03-03T08:09:34.406Z,9.96
2019-03-03T08:10:09.968Z,10.00
2019-03-03T08:10:45.428Z,9.95
2019-03-03T08:11:21.123Z,10.02
2019-03-03T08:11:56.948Z,9.98
2019-03-03T08:12:32.639Z,10.00
2019-03-03T08:13:09.490Z,10.14
2019-03-03T08:13:45.469Z,10.13
2019-03-03T08:14:21.042Z,10.09
2019-03-03T08:14:56.805Z,10.09
2019-03-03T08:15:32.861Z,10.16
2019-03-03T08:16:08.332Z,10.12
2019-03-03T08:16:44.095Z,10.15
2019-03-03T08:17:20.119Z,10.07
2019-03-03T08:17:55.588Z,10.17
2019-03-03T08:18:31.310Z,10.22
2019-03-03T08:19:06.719Z,10.21
2019-03-03T08:19:42.129Z,10.21
2019-03-03T08:20:17.820Z,10.18
2019-03-03T08:20:53.299Z,10.14
2019-03-03T08:21:28.957Z,10.14
2019-03-03T08:22:04.623Z,10.14
2019-03-03T08:22:40.268Z,10.27
2019-03-03T08:23:15.674Z,10.18
2019-03-03T08:23:51.427Z,10.26
2019-03-03T08:24:27.355Z,10.33
2019-03-03T08:25:02.744Z,10.29
2019-03-03T08:25:38.446Z,10.19
2019-03-03T08:26:14.097Z,10.25
2019-03-03T08:26:49.545Z,10.31
2019-03-03T08:27:24.963Z,10.35
2019-03-03T08:28:00.648Z,10.38
2019-03-03T08:28:36.293Z,10.39
2019-03-03T08:29:11.779Z,10.33
2019-03-03T08:29:47.292Z,10.32
2019-03-03T08:30:22.742Z,10.44
2019-03-03T08:30:58.146Z,10.36
2019-03-03T08:31:34.096Z,10.43
2019-03-03T08:32:09.476Z,10.56
2019-03-03T08:32:44.882Z,10.56
2019-03-03T08:33:20.310Z,10.47
2019-03-03T08:33:55.700Z,10.41
2019-03-03T08:34:31.363Z,10.53
2019-03-03T08:35:08.871Z,10.59
2019-03-03T08:35:44.340Z,10.56
2019-03-03T08:36:19.719Z,10.67
2019-03-03T08:36:55.100Z,10.65
2019-03-03T08:37:30.792Z,10.59
2019-03-03T08:38:06.443Z,10.52
2019-03-03T08:38:42.135Z,10.49
2019-03-03T08:39:17.803Z,10.54
2019-03-03T08:39:53.501Z,10.52
2019-03-03T08:40:29.175Z,10.51
2019-03-03T08:41:04.592Z,10.55
2019-03-03T08:41:43.549Z,10.55
2019-03-03T08:42:40.085Z,10.44
2019-03-03T08:43:40.284Z,10.54
2019-03-03T08:44:19.255Z,10.64
2019-03-03T08:45:16.867Z,10.76
2019-03-03T08:46:07.293Z,10.84
2019-03-03T08:46:56.194Z,10.83
2019-03-03T08:47:38.497Z,10.75
2019-03-03T08:48:21.011Z,10.72
2019-03-03T08:49:19.928Z,10.76
2019-03-03T08:50:29.761Z,10.83
2019-03-03T08:51:23.171Z,10.79
2019-03-03T08:52:20.724Z,10.88
2019-03-03T08:53:13.214Z,10.71
2019-03-03T08:54:19.772Z,10.73
2019-03-03T08:55:05.234Z,10.67
2019-03-03T08:56:11.068Z,10.63
2019-03-03T08:57:05.416Z,10.55
2019-03-03T08:58:02.057Z,10.55
2019-03-03T08:58:52.308Z,10.49
2019-03-03T08:59:48.764Z,10.49
2019-03-03T09:00:45.944Z,10.52
2019-03-03T09:01:38.315Z,10.67
2019-03-03T09:02:36.970Z,10.65